Bechtelsville, PA (19505)

3:04 PM EDT on May 06, 2015 (GMT -0400)
Hill Church | | Change Station
CLOSE
Current Station
Personal Weather Station
Location: Boyertown, PA
Elevation: 722 ft
Nearby Weather Stations

Elev 722 ft 40.39 °N, 75.66 °W | Updated 9 minutes ago

Partly Cloudy
Partly Cloudy
69.8 °F
Feels Like 69.8 °F
N
0.0
Wind Variable Wind from NE

Today
High -- | Low -- °F
--% Chance of Precip.
Yesterday
High -- | Low -- °F
Precip. -- in
5:56 AM 8:02 PM
Waning Gibbous, 93% visible
Pressure 30.25 in
Visibility 10.0 miles
Clouds Mostly Cloudy 9500 ft
Dew Point 49 °F
Humidity 47%
Rainfall 0.00 in
Snow Depth Not available.
UV 5 out of 12
Pollen 5.80 out of 12
Air Quality Not available.
Flu Activity Sporadic
METAR KPTW 061854Z AUTO 08005KT 10SM BKN095 21/07 A3025 RMK AO2 SLP241 T02110067

More Conditions Fewer Conditions

Pressure 30.25 in
Visibility 10.0 miles
Clouds Mostly Cloudy 9500 ft
Dew Point 49 °F
Humidity 47%
Rainfall 0.00 in
Snow Depth Not available.
UV 5 out of 12
Pollen 5.80 out of 12
Air Quality Not available.
Flu Activity Sporadic
METAR KPTW 061854Z AUTO 08005KT 10SM BKN095 21/07 A3025 RMK AO2 SLP241 T02110067

More Conditions Fewer Conditions

Nowcast | as of 1:42 PM EDT on May 6, 2015

Between now and 400 PM, scattered light rain showers will continue to affect much of eastern Pennsylvania. Additional rainfall should be less than a tenth of an inch.

×

10-Day Weather Forecast

Almanac

Astronomy

May. 06, 2015 Rise Set
Actual Time
Civil Twilight
Nautical Twilight
Astronomical Twilight
Moon
Length of Visible Light
Length of Day
Tomorrow will be .
, % of the Moon is Illuminated

Today's Extremes

State Highs State Lows

Community

WunderPhotos

Upload Photos

1,818,993 photos uploaded!

WunderBlogs® & News

Nearby

Air Quality

  Air Quality AQ Index Pollutant
Not available.

Snow Depth

Station Depth Elevation

Earthquake Activity

City Distance Mag. Time & Date
Minimum magnitude displayed is 2.5.

Coastal Water Temperatures

Place Temperature

Stations

Nearby Weather Stations

Station Location Temp. Windchill Dew Point Humidity Wind Precip. Elev Updated Type